sensor_id;sensor_type;location;lat;lon;timestamp;pressure;altitude;pressure_sealevel;temperature;humidity
70976;BME280;58635;51.198;6.010;2023-12-22T00:00:33;100151.50;;;9.27;64.98
70976;BME280;58635;51.198;6.010;2023-12-22T00:02:59;100140.78;;;9.30;65.04
70976;BME280;58635;51.198;6.010;2023-12-22T00:05:26;100158.44;;;9.33;65.05
70976;BME280;58635;51.198;6.010;2023-12-22T00:07:52;100160.44;;;9.38;65.12
70976;BME280;58635;51.198;6.010;2023-12-22T00:10:18;100137.00;;;9.40;65.32
70976;BME280;58635;51.198;6.010;2023-12-22T00:12:45;100144.75;;;9.40;65.26
70976;BME280;58635;51.198;6.010;2023-12-22T00:15:11;100148.53;;;9.37;65.22
70976;BME280;58635;51.198;6.010;2023-12-22T00:17:37;100154.88;;;9.34;65.32
70976;BME280;58635;51.198;6.010;2023-12-22T00:20:04;100153.09;;;9.28;65.30
70976;BME280;58635;51.198;6.010;2023-12-22T00:22:30;100143.19;;;9.25;65.60
70976;BME280;58635;51.198;6.010;2023-12-22T00:24:57;100138.03;;;9.25;65.67
70976;BME280;58635;51.198;6.010;2023-12-22T00:27:23;100129.09;;;9.28;65.64
70976;BME280;58635;51.198;6.010;2023-12-22T00:29:50;100146.53;;;9.32;65.58
70976;BME280;58635;51.198;6.010;2023-12-22T00:32:16;100153.06;;;9.35;65.69
70976;BME280;58635;51.198;6.010;2023-12-22T00:34:42;100159.66;;;9.37;65.69
70976;BME280;58635;51.198;6.010;2023-12-22T00:37:09;100166.00;;;9.42;65.58
70976;BME280;58635;51.198;6.010;2023-12-22T00:39:35;100181.84;;;9.45;65.57
70976;BME280;58635;51.198;6.010;2023-12-22T00:42:02;100182.06;;;9.50;65.57
70976;BME280;58635;51.198;6.010;2023-12-22T00:44:30;100184.81;;;9.55;65.74
70976;BME280;58635;51.198;6.010;2023-12-22T00:46:56;100180.25;;;9.57;65.74
70976;BME280;58635;51.198;6.010;2023-12-22T00:49:23;100181.47;;;9.61;65.63
70976;BME280;58635;51.198;6.010;2023-12-22T00:51:49;100180.47;;;9.62;65.70
70976;BME280;58635;51.198;6.010;2023-12-22T00:54:15;100176.88;;;9.63;65.65
70976;BME280;58635;51.198;6.010;2023-12-22T00:56:42;100173.91;;;9.60;65.71
70976;BME280;58635;51.198;6.010;2023-12-22T00:59:08;100187.41;;;9.62;65.62
70976;BME280;58635;51.198;6.010;2023-12-22T01:01:34;100173.91;;;9.60;65.64
70976;BME280;58635;51.198;6.010;2023-12-22T01:04:01;100170.53;;;9.59;65.69
70976;BME280;58635;51.198;6.010;2023-12-22T01:06:27;100180.88;;;9.59;65.90
70976;BME280;58635;51.198;6.010;2023-12-22T01:08:53;100184.41;;;9.58;65.88
70976;BME280;58635;51.198;6.010;2023-12-22T01:11:20;100187.63;;;9.60;65.84
70976;BME280;58635;51.198;6.010;2023-12-22T01:13:46;100209.28;;;9.59;65.90
70976;BME280;58635;51.198;6.010;2023-12-22T01:16:12;100193.97;;;9.58;66.20
70976;BME280;58635;51.198;6.010;2023-12-22T01:18:39;100208.06;;;9.55;66.22
70976;BME280;58635;51.198;6.010;2023-12-22T01:21:08;100180.06;;;9.52;66.26
70976;BME280;58635;51.198;6.010;2023-12-22T01:23:35;100194.56;;;9.53;66.28
70976;BME280;58635;51.198;6.010;2023-12-22T01:26:01;100198.53;;;9.56;66.06
70976;BME280;58635;51.198;6.010;2023-12-22T01:28:27;100186.81;;;9.53;66.32
70976;BME280;58635;51.198;6.010;2023-12-22T01:30:54;100179.88;;;9.54;66.06
70976;BME280;58635;51.198;6.010;2023-12-22T01:33:20;100180.66;;;9.54;66.08
70976;BME280;58635;51.198;6.010;2023-12-22T01:35:46;100183.84;;;9.56;66.08
70976;BME280;58635;51.198;6.010;2023-12-22T01:38:13;100205.88;;;9.59;65.92
70976;BME280;58635;51.198;6.010;2023-12-22T01:40:39;100203.91;;;9.61;65.91
70976;BME280;58635;51.198;6.010;2023-12-22T01:43:05;100191.00;;;9.61;66.11
70976;BME280;58635;51.198;6.010;2023-12-22T01:45:32;100176.50;;;9.60;66.07
70976;BME280;58635;51.198;6.010;2023-12-22T01:47:59;100195.16;;;9.62;66.04
70976;BME280;58635;51.198;6.010;2023-12-22T01:50:26;100193.38;;;9.62;65.84
70976;BME280;58635;51.198;6.010;2023-12-22T01:52:53;100192.97;;;9.65;65.75
70976;BME280;58635;51.198;6.010;2023-12-22T01:55:19;100187.78;;;9.65;65.08
70976;BME280;58635;51.198;6.010;2023-12-22T01:57:46;100196.72;;;9.70;64.95
70976;BME280;58635;51.198;6.010;2023-12-22T02:00:13;100192.16;;;9.72;64.61
70976;BME280;58635;51.198;6.010;2023-12-22T02:02:40;100205.25;;;9.77;64.30
70976;BME280;58635;51.198;6.010;2023-12-22T02:05:09;100215.97;;;9.80;63.86
70976;BME280;58635;51.198;6.010;2023-12-22T02:07:38;100211.41;;;9.82;63.51
70976;BME280;58635;51.198;6.010;2023-12-22T02:10:10;100224.91;;;9.84;63.38
70976;BME280;58635;51.198;6.010;2023-12-22T02:12:37;100236.84;;;9.85;63.38
70976;BME280;58635;51.198;6.010;2023-12-22T02:15:04;100241.00;;;9.86;63.17
70976;BME280;58635;51.198;6.010;2023-12-22T02:19:58;100212.38;;;9.88;63.33
70976;BME280;58635;51.198;6.010;2023-12-22T02:24:51;100210.81;;;9.87;63.27
70976;BME280;58635;51.198;6.010;2023-12-22T02:30:07;100225.50;;;9.86;63.43
70976;BME280;58635;51.198;6.010;2023-12-22T02:32:37;100223.50;;;9.88;63.44
70976;BME280;58635;51.198;6.010;2023-12-22T02:35:08;100209.59;;;9.89;63.54
70976;BME280;58635;51.198;6.010;2023-12-22T02:37:36;100215.16;;;9.93;63.58
70976;BME280;58635;51.198;6.010;2023-12-22T02:40:05;100210.38;;;9.96;63.60
70976;BME280;58635;51.198;6.010;2023-12-22T02:42:36;100201.22;;;10.01;63.58
70976;BME280;58635;51.198;6.010;2023-12-22T02:45:06;100196.06;;;10.01;63.54
70976;BME280;58635;51.198;6.010;2023-12-22T02:47:32;100194.69;;;9.98;63.57
70976;BME280;58635;51.198;6.010;2023-12-22T02:49:59;100205.19;;;10.03;63.55
70976;BME280;58635;51.198;6.010;2023-12-22T02:52:25;100198.22;;;10.04;63.45
70976;BME280;58635;51.198;6.010;2023-12-22T02:54:52;100195.06;;;10.02;63.65
70976;BME280;58635;51.198;6.010;2023-12-22T02:57:18;100197.03;;;10.06;63.47
70976;BME280;58635;51.198;6.010;2023-12-22T02:59:44;100194.06;;;10.09;63.02
70976;BME280;58635;51.198;6.010;2023-12-22T03:02:11;100210.72;;;10.13;62.79
70976;BME280;58635;51.198;6.010;2023-12-22T03:04:38;100226.81;;;10.15;62.43
70976;BME280;58635;51.198;6.010;2023-12-22T03:07:04;100214.09;;;10.14;62.08
70976;BME280;58635;51.198;6.010;2023-12-22T03:09:30;100248.06;;;10.17;60.51
70976;BME280;58635;51.198;6.010;2023-12-22T03:11:58;100218.06;;;10.16;59.84
70976;BME280;58635;51.198;6.010;2023-12-22T03:14:30;100219.25;;;10.14;59.55
70976;BME280;58635;51.198;6.010;2023-12-22T03:16:59;100219.88;;;10.09;60.03
70976;BME280;58635;51.198;6.010;2023-12-22T03:19:26;100210.16;;;10.05;60.53
70976;BME280;58635;51.198;6.010;2023-12-22T03:21:53;100216.72;;;10.01;60.67
70976;BME280;58635;51.198;6.010;2023-12-22T03:24:19;100237.22;;;9.95;61.08
70976;BME280;58635;51.198;6.010;2023-12-22T03:26:46;100232.63;;;9.91;61.40
70976;BME280;58635;51.198;6.010;2023-12-22T03:29:13;100233.84;;;9.88;61.68
70976;BME280;58635;51.198;6.010;2023-12-22T03:31:39;100219.34;;;9.87;61.75
70976;BME280;58635;51.198;6.010;2023-12-22T03:34:06;100228.09;;;9.86;61.83
70976;BME280;58635;51.198;6.010;2023-12-22T03:36:33;100218.97;;;9.84;62.02
70976;BME280;58635;51.198;6.010;2023-12-22T03:38:59;100227.09;;;9.81;62.16
70976;BME280;58635;51.198;6.010;2023-12-22T03:41:25;100222.94;;;9.80;62.53
70976;BME280;58635;51.198;6.010;2023-12-22T03:43:52;100210.00;;;9.80;62.64
70976;BME280;58635;51.198;6.010;2023-12-22T03:46:18;100198.88;;;9.79;62.74
70976;BME280;58635;51.198;6.010;2023-12-22T03:48:44;100196.31;;;9.79;62.96
70976;BME280;58635;51.198;6.010;2023-12-22T03:51:11;100202.47;;;9.78;63.13
70976;BME280;58635;51.198;6.010;2023-12-22T03:53:39;100199.31;;;9.76;63.11
70976;BME280;58635;51.198;6.010;2023-12-22T03:56:07;100209.44;;;9.78;63.46
70976;BME280;58635;51.198;6.010;2023-12-22T03:58:33;100208.84;;;9.76;63.55
70976;BME280;58635;51.198;6.010;2023-12-22T04:01:00;100212.22;;;9.76;63.68
70976;BME280;58635;51.198;6.010;2023-12-22T04:03:26;100221.75;;;9.76;63.79
70976;BME280;58635;51.198;6.010;2023-12-22T04:05:52;100231.66;;;9.79;63.92
70976;BME280;58635;51.198;6.010;2023-12-22T04:08:19;100232.25;;;9.81;64.02
70976;BME280;58635;51.198;6.010;2023-12-22T04:10:47;100224.31;;;9.82;64.02
70976;BME280;58635;51.198;6.010;2023-12-22T04:13:13;100224.91;;;9.84;64.17
70976;BME280;58635;51.198;6.010;2023-12-22T04:15:40;100218.56;;;9.87;63.91
70976;BME280;58635;51.198;6.010;2023-12-22T04:18:06;100222.91;;;9.93;63.72
70976;BME280;58635;51.198;6.010;2023-12-22T04:20:33;100225.88;;;9.96;63.72
70976;BME280;58635;51.198;6.010;2023-12-22T04:22:59;100232.22;;;10.01;63.71
70976;BME280;58635;51.198;6.010;2023-12-22T04:25:25;100224.06;;;10.04;63.66
70976;BME280;58635;51.198;6.010;2023-12-22T04:27:52;100214.13;;;10.07;63.60
70976;BME280;58635;51.198;6.010;2023-12-22T04:30:18;100224.66;;;10.12;63.46
70976;BME280;58635;51.198;6.010;2023-12-22T04:32:44;100221.66;;;10.15;63.50
70976;BME280;58635;51.198;6.010;2023-12-22T04:35:11;100222.63;;;10.21;63.26
70976;BME280;58635;51.198;6.010;2023-12-22T04:37:37;100223.84;;;10.25;63.12
70976;BME280;58635;51.198;6.010;2023-12-22T04:40:04;100229.19;;;10.30;63.16
70976;BME280;58635;51.198;6.010;2023-12-22T04:42:30;100227.78;;;10.34;63.06
70976;BME280;58635;51.198;6.010;2023-12-22T04:44:57;100242.09;;;10.37;62.89
70976;BME280;58635;51.198;6.010;2023-12-22T04:47:23;100237.09;;;10.42;62.99
70976;BME280;58635;51.198;6.010;2023-12-22T04:49:50;100239.28;;;10.45;62.88
70976;BME280;58635;51.198;6.010;2023-12-22T04:52:16;100246.19;;;10.51;62.66
70976;BME280;58635;51.198;6.010;2023-12-22T04:54:42;100256.94;;;10.54;62.68
70976;BME280;58635;51.198;6.010;2023-12-22T04:57:09;100254.16;;;10.56;62.50
70976;BME280;58635;51.198;6.010;2023-12-22T04:59:35;100254.72;;;10.58;62.54
70976;BME280;58635;51.198;6.010;2023-12-22T05:02:01;100254.31;;;10.61;62.36
70976;BME280;58635;51.198;6.010;2023-12-22T05:04:28;100253.09;;;10.64;62.35
70976;BME280;58635;51.198;6.010;2023-12-22T05:06:54;100256.28;;;10.66;62.11
70976;BME280;58635;51.198;6.010;2023-12-22T05:09:20;100254.28;;;10.68;62.01
70976;BME280;58635;51.198;6.010;2023-12-22T05:11:47;100260.84;;;10.70;61.76
70976;BME280;58635;51.198;6.010;2023-12-22T05:14:13;100284.69;;;10.72;61.62
70976;BME280;58635;51.198;6.010;2023-12-22T05:16:39;100279.31;;;10.74;61.58
70976;BME280;58635;51.198;6.010;2023-12-22T05:19:06;100278.91;;;10.77;61.43
70976;BME280;58635;51.198;6.010;2023-12-22T05:21:32;100280.50;;;10.78;61.52
70976;BME280;58635;51.198;6.010;2023-12-22T05:23:58;100287.28;;;10.79;61.35
70976;BME280;58635;51.198;6.010;2023-12-22T05:26:25;100288.84;;;10.80;61.44
70976;BME280;58635;51.198;6.010;2023-12-22T05:28:56;100286.84;;;10.82;60.79
70976;BME280;58635;51.198;6.010;2023-12-22T05:31:23;100276.50;;;10.82;61.04
70976;BME280;58635;51.198;6.010;2023-12-22T05:33:49;100279.88;;;10.82;60.90
70976;BME280;58635;51.198;6.010;2023-12-22T05:36:16;100279.09;;;10.82;60.96
70976;BME280;58635;51.198;6.010;2023-12-22T05:38:42;100278.88;;;10.83;60.87
70976;BME280;58635;51.198;6.010;2023-12-22T05:41:08;100275.88;;;10.87;60.97
70976;BME280;58635;51.198;6.010;2023-12-22T05:43:34;100271.69;;;10.86;60.96
70976;BME280;58635;51.198;6.010;2023-12-22T05:46:01;100277.44;;;10.88;60.92
70976;BME280;58635;51.198;6.010;2023-12-22T05:48:27;100280.03;;;10.88;60.87
70976;BME280;58635;51.198;6.010;2023-12-22T05:50:57;100278.06;;;10.90;61.02
70976;BME280;58635;51.198;6.010;2023-12-22T05:53:24;100278.84;;;10.90;61.21
70976;BME280;58635;51.198;6.010;2023-12-22T05:55:50;100275.25;;;10.91;61.43
70976;BME280;58635;51.198;6.010;2023-12-22T05:58:16;100271.66;;;10.92;61.53
70976;BME280;58635;51.198;6.010;2023-12-22T06:00:43;100275.47;;;10.90;61.65
70976;BME280;58635;51.198;6.010;2023-12-22T06:03:09;100279.44;;;10.92;62.05
70976;BME280;58635;51.198;6.010;2023-12-22T06:05:35;100248.97;;;10.94;62.27
70976;BME280;58635;51.198;6.010;2023-12-22T06:08:02;100250.19;;;10.92;62.29
70976;BME280;58635;51.198;6.010;2023-12-22T06:10:28;100241.84;;;10.90;62.42
70976;BME280;58635;51.198;6.010;2023-12-22T06:12:54;100244.59;;;10.88;62.61
70976;BME280;58635;51.198;6.010;2023-12-22T06:15:21;100267.53;;;10.84;62.68
70976;BME280;58635;51.198;6.010;2023-12-22T06:17:47;100277.66;;;10.86;63.08
70976;BME280;58635;51.198;6.010;2023-12-22T06:20:13;100272.69;;;10.84;63.30
70976;BME280;58635;51.198;6.010;2023-12-22T06:22:40;100271.69;;;10.86;63.37
70976;BME280;58635;51.198;6.010;2023-12-22T06:25:06;100275.88;;;10.87;63.53
70976;BME280;58635;51.198;6.010;2023-12-22T06:27:34;100274.06;;;10.87;63.61
70976;BME280;58635;51.198;6.010;2023-12-22T06:30:00;100269.69;;;10.88;63.71
70976;BME280;58635;51.198;6.010;2023-12-22T06:32:26;100274.88;;;10.88;63.74
70976;BME280;58635;51.198;6.010;2023-12-22T06:34:53;100280.66;;;10.90;63.67
70976;BME280;58635;51.198;6.010;2023-12-22T06:37:19;100265.13;;;10.90;63.88
70976;BME280;58635;51.198;6.010;2023-12-22T06:39:45;100266.72;;;10.91;63.75
70976;BME280;58635;51.198;6.010;2023-12-22T06:42:11;100258.53;;;10.94;63.83
70976;BME280;58635;51.198;6.010;2023-12-22T06:44:42;100264.50;;;10.94;63.90
70976;BME280;58635;51.198;6.010;2023-12-22T06:47:09;100255.16;;;10.93;63.98
70976;BME280;58635;51.198;6.010;2023-12-22T06:49:36;100269.25;;;10.97;63.68
70976;BME280;58635;51.198;6.010;2023-12-22T06:52:02;100286.34;;;10.98;63.70
70976;BME280;58635;51.198;6.010;2023-12-22T06:54:28;100282.75;;;10.99;63.67
70976;BME280;58635;51.198;6.010;2023-12-22T06:56:55;100293.91;;;11.00;63.61
70976;BME280;58635;51.198;6.010;2023-12-22T06:59:21;100291.13;;;11.01;63.74
70976;BME280;58635;51.198;6.010;2023-12-22T07:01:47;100291.94;;;11.02;63.70
70976;BME280;58635;51.198;6.010;2023-12-22T07:04:14;100292.50;;;11.04;63.65
70976;BME280;58635;51.198;6.010;2023-12-22T07:06:40;100275.56;;;11.08;63.51
70976;BME280;58635;51.198;6.010;2023-12-22T07:11:40;100288.50;;;11.08;63.83
70976;BME280;58635;51.198;6.010;2023-12-22T07:14:07;100290.28;;;11.07;63.76
70976;BME280;58635;51.198;6.010;2023-12-22T07:16:34;100296.25;;;11.08;63.82
70976;BME280;58635;51.198;6.010;2023-12-22T07:19:01;100290.88;;;11.09;63.95
70976;BME280;58635;51.198;6.010;2023-12-22T07:21:27;100279.94;;;11.07;64.33
70976;BME280;58635;51.198;6.010;2023-12-22T07:23:53;100283.09;;;11.09;64.58
70976;BME280;58635;51.198;6.010;2023-12-22T07:26:20;100278.94;;;11.08;64.40
70976;BME280;58635;51.198;6.010;2023-12-22T07:28:47;100275.75;;;11.06;64.55
70976;BME280;58635;51.198;6.010;2023-12-22T07:31:14;100283.09;;;11.09;64.63
70976;BME280;58635;51.198;6.010;2023-12-22T07:33:40;100277.94;;;11.09;64.70
70976;BME280;58635;51.198;6.010;2023-12-22T07:36:07;100274.53;;;11.09;64.84
70976;BME280;58635;51.198;6.010;2023-12-22T07:38:34;100265.56;;;11.11;64.47
70976;BME280;58635;51.198;6.010;2023-12-22T07:41:00;100255.22;;;11.11;64.62
70976;BME280;58635;51.198;6.010;2023-12-22T07:43:26;100261.00;;;11.13;64.56
70976;BME280;58635;51.198;6.010;2023-12-22T07:45:53;100260.22;;;11.13;64.69
70976;BME280;58635;51.198;6.010;2023-12-22T07:48:19;100274.72;;;11.14;64.44
70976;BME280;58635;51.198;6.010;2023-12-22T07:50:45;100270.94;;;11.17;64.51
70976;BME280;58635;51.198;6.010;2023-12-22T07:53:12;100281.84;;;11.19;64.51
70976;BME280;58635;51.198;6.010;2023-12-22T07:55:38;100284.22;;;11.20;64.31
70976;BME280;58635;51.198;6.010;2023-12-22T07:58:05;100282.44;;;11.21;64.18
70976;BME280;58635;51.198;6.010;2023-12-22T08:00:31;100284.59;;;11.24;64.06
70976;BME280;58635;51.198;6.010;2023-12-22T08:02:57;100274.06;;;11.25;64.14
70976;BME280;58635;51.198;6.010;2023-12-22T08:05:24;100263.28;;;11.28;64.03
70976;BME280;58635;51.198;6.010;2023-12-22T08:07:50;100257.09;;;11.29;63.80
70976;BME280;58635;51.198;6.010;2023-12-22T08:10:16;100269.03;;;11.30;63.79
70976;BME280;58635;51.198;6.010;2023-12-22T08:12:43;100274.56;;;11.34;63.94
70976;BME280;58635;51.198;6.010;2023-12-22T08:15:10;100275.16;;;11.36;63.72
70976;BME280;58635;51.198;6.010;2023-12-22T08:17:36;100271.59;;;11.37;63.71
70976;BME280;58635;51.198;6.010;2023-12-22T08:20:04;100259.44;;;11.37;63.87
70976;BME280;58635;51.198;6.010;2023-12-22T08:22:34;100271.38;;;11.38;63.91
70976;BME280;58635;51.198;6.010;2023-12-22T08:25:00;100283.09;;;11.41;63.84
70976;BME280;58635;51.198;6.010;2023-12-22T08:27:27;100270.94;;;11.41;63.69
70976;BME280;58635;51.198;6.010;2023-12-22T08:29:53;100267.13;;;11.44;63.78
70976;BME280;58635;51.198;6.010;2023-12-22T08:32:20;100272.09;;;11.46;64.02
70976;BME280;58635;51.198;6.010;2023-12-22T08:34:46;100284.25;;;11.45;63.94
70976;BME280;58635;51.198;6.010;2023-12-22T08:37:12;100283.81;;;11.48;63.78
70976;BME280;58635;51.198;6.010;2023-12-22T08:39:39;100284.44;;;11.50;63.98
70976;BME280;58635;51.198;6.010;2023-12-22T08:42:05;100278.03;;;11.53;64.00
70976;BME280;58635;51.198;6.010;2023-12-22T08:44:32;100279.41;;;11.55;64.13
70976;BME280;58635;51.198;6.010;2023-12-22T08:46:58;100270.41;;;11.58;64.32
70976;BME280;58635;51.198;6.010;2023-12-22T08:49:24;100276.38;;;11.58;64.15
70976;BME280;58635;51.198;6.010;2023-12-22T08:51:51;100261.44;;;11.60;64.27
70976;BME280;58635;51.198;6.010;2023-12-22T08:54:17;100264.03;;;11.60;64.28
70976;BME280;58635;51.198;6.010;2023-12-22T08:56:43;100258.41;;;11.63;64.44
70976;BME280;58635;51.198;6.010;2023-12-22T08:59:10;100248.84;;;11.64;64.26
70976;BME280;58635;51.198;6.010;2023-12-22T09:01:36;100248.84;;;11.64;64.42
70976;BME280;58635;51.198;6.010;2023-12-22T09:04:03;100242.66;;;11.65;64.39
70976;BME280;58635;51.198;6.010;2023-12-22T09:06:29;100241.66;;;11.66;64.64
70976;BME280;58635;51.198;6.010;2023-12-22T09:08:55;100242.81;;;11.70;64.58
70976;BME280;58635;51.198;6.010;2023-12-22T09:11:22;100236.84;;;11.69;64.49
70976;BME280;58635;51.198;6.010;2023-12-22T09:13:49;100237.78;;;11.75;64.44
70976;BME280;58635;51.198;6.010;2023-12-22T09:16:20;100240.16;;;11.77;64.59
70976;BME280;58635;51.198;6.010;2023-12-22T09:18:48;100236.38;;;11.79;64.69
70976;BME280;58635;51.198;6.010;2023-12-22T09:21:15;100226.19;;;11.78;64.84
70976;BME280;58635;51.198;6.010;2023-12-22T09:23:44;100224.41;;;11.78;64.84
70976;BME280;58635;51.198;6.010;2023-12-22T09:26:13;100228.78;;;11.78;65.01
70976;BME280;58635;51.198;6.010;2023-12-22T09:28:41;100230.03;;;11.75;65.15
70976;BME280;58635;51.198;6.010;2023-12-22T09:31:08;100227.88;;;11.72;65.29
70976;BME280;58635;51.198;6.010;2023-12-22T09:33:35;100243.19;;;11.74;65.38
70976;BME280;58635;51.198;6.010;2023-12-22T09:36:01;100231.25;;;11.73;65.69
70976;BME280;58635;51.198;6.010;2023-12-22T09:38:28;100241.59;;;11.73;65.78
70976;BME280;58635;51.198;6.010;2023-12-22T09:40:55;100249.38;;;11.73;65.83
70976;BME280;58635;51.198;6.010;2023-12-22T09:43:22;100236.03;;;11.69;66.15
70976;BME280;58635;51.198;6.010;2023-12-22T09:45:50;100237.22;;;11.73;66.29
70976;BME280;58635;51.198;6.010;2023-12-22T09:48:17;100229.63;;;11.71;66.73
70976;BME280;58635;51.198;6.010;2023-12-22T09:50:44;100234.63;;;11.73;66.68
70976;BME280;58635;51.198;6.010;2023-12-22T09:53:12;100232.03;;;11.73;66.88
70976;BME280;58635;51.198;6.010;2023-12-22T09:55:40;100228.66;;;11.73;67.14
70976;BME280;58635;51.198;6.010;2023-12-22T09:58:09;100224.84;;;11.75;67.12
70976;BME280;58635;51.198;6.010;2023-12-22T10:00:36;100222.25;;;11.75;67.18
70976;BME280;58635;51.198;6.010;2023-12-22T10:03:07;100230.03;;;11.75;67.17
70976;BME280;58635;51.198;6.010;2023-12-22T10:05:33;100225.41;;;11.77;67.46
70976;BME280;58635;51.198;6.010;2023-12-22T10:08:00;100224.41;;;11.78;67.53
70976;BME280;58635;51.198;6.010;2023-12-22T10:10:28;100222.81;;;11.77;67.50
70976;BME280;58635;51.198;6.010;2023-12-22T10:12:59;100215.84;;;11.78;67.89
70976;BME280;58635;51.198;6.010;2023-12-22T10:15:25;100217.63;;;11.77;68.18
70976;BME280;58635;51.198;6.010;2023-12-22T10:17:53;100219.03;;;11.80;68.30
70976;BME280;58635;51.198;6.010;2023-12-22T10:20:19;100213.41;;;11.83;68.41
70976;BME280;58635;51.198;6.010;2023-12-22T10:22:45;100200.63;;;11.88;68.20
70976;BME280;58635;51.198;6.010;2023-12-22T10:25:16;100201.53;;;11.93;68.26
70976;BME280;58635;51.198;6.010;2023-12-22T10:27:45;100208.25;;;12.01;68.28
70976;BME280;58635;51.198;6.010;2023-12-22T10:30:12;100196.00;;;12.08;68.12
70976;BME280;58635;51.198;6.010;2023-12-22T10:32:41;100197.72;;;12.14;68.02
70976;BME280;58635;51.198;6.010;2023-12-22T10:35:08;100195.47;;;12.18;68.15
70976;BME280;58635;51.198;6.010;2023-12-22T10:37:35;100187.28;;;12.21;68.01
70976;BME280;58635;51.198;6.010;2023-12-22T10:40:05;100194.41;;;12.25;68.01
70976;BME280;58635;51.198;6.010;2023-12-22T10:42:32;100187.19;;;12.27;67.81
70976;BME280;58635;51.198;6.010;2023-12-22T10:44:59;100181.56;;;12.30;67.84
70976;BME280;58635;51.198;6.010;2023-12-22T10:47:28;100190.50;;;12.35;67.91
70976;BME280;58635;51.198;6.010;2023-12-22T10:49:55;100199.41;;;12.39;67.80
70976;BME280;58635;51.198;6.010;2023-12-22T10:52:21;100192.44;;;12.39;67.82
70976;BME280;58635;51.198;6.010;2023-12-22T10:54:50;100189.84;;;12.39;67.71
70976;BME280;58635;51.198;6.010;2023-12-22T10:57:18;100185.44;;;12.40;67.76
70976;BME280;58635;51.198;6.010;2023-12-22T10:59:46;100189.38;;;12.42;67.92
70976;BME280;58635;51.198;6.010;2023-12-22T11:02:18;100206.56;;;12.43;67.59
70976;BME280;58635;51.198;6.010;2023-12-22T11:04:57;100193.38;;;12.45;67.65
70976;BME280;58635;51.198;6.010;2023-12-22T11:07:28;100202.97;;;12.44;67.59
70976;BME280;58635;51.198;6.010;2023-12-22T11:09:56;100200.13;;;12.46;67.51
70976;BME280;58635;51.198;6.010;2023-12-22T11:12:23;100200.72;;;12.48;67.47
70976;BME280;58635;51.198;6.010;2023-12-22T11:14:50;100192.47;;;12.51;67.45
70976;BME280;58635;51.198;6.010;2023-12-22T11:17:19;100188.66;;;12.53;67.57
70976;BME280;58635;51.198;6.010;2023-12-22T11:19:53;100194.78;;;12.59;67.24
70976;BME280;58635;51.198;6.010;2023-12-22T11:22:21;100196.56;;;12.58;67.03
70976;BME280;58635;51.198;6.010;2023-12-22T11:24:49;100204.13;;;12.60;66.92
70976;BME280;58635;51.198;6.010;2023-12-22T11:27:17;100205.84;;;12.66;66.93
70976;BME280;58635;51.198;6.010;2023-12-22T11:29:49;100204.63;;;12.69;66.89
70976;BME280;58635;51.198;6.010;2023-12-22T11:32:19;100188.38;;;12.73;66.85
70976;BME280;58635;51.198;6.010;2023-12-22T11:34:47;100192.69;;;12.79;66.49
70976;BME280;58635;51.198;6.010;2023-12-22T11:37:15;100181.88;;;12.82;66.30
70976;BME280;58635;51.198;6.010;2023-12-22T11:39:45;100190.78;;;12.86;66.21
70976;BME280;58635;51.198;6.010;2023-12-22T11:42:21;100197.31;;;12.89;66.02
70976;BME280;58635;51.198;6.010;2023-12-22T11:44:49;100195.31;;;12.91;65.65
70976;BME280;58635;51.198;6.010;2023-12-22T11:47:16;100191.25;;;12.95;65.75
70976;BME280;58635;51.198;6.010;2023-12-22T11:49:43;100189.78;;;12.99;65.40
70976;BME280;58635;51.198;6.010;2023-12-22T11:52:14;100196.78;;;12.99;65.27
70976;BME280;58635;51.198;6.010;2023-12-22T11:54:47;100198.94;;;13.02;65.10
70976;BME280;58635;51.198;6.010;2023-12-22T11:57:39;100198.72;;;13.03;65.13
70976;BME280;58635;51.198;6.010;2023-12-22T12:03:05;100188.44;;;13.08;64.91
70976;BME280;58635;51.198;6.010;2023-12-22T12:05:32;100187.44;;;13.09;64.81
70976;BME280;58635;51.198;6.010;2023-12-22T12:08:08;100183.38;;;13.13;64.68
70976;BME280;58635;51.198;6.010;2023-12-22T12:13:07;100179.13;;;13.19;64.30
70976;BME280;58635;51.198;6.010;2023-12-22T12:15:34;100182.84;;;13.23;64.36
70976;BME280;58635;51.198;6.010;2023-12-22T12:18:01;100176.06;;;13.22;64.23
70976;BME280;58635;51.198;6.010;2023-12-22T12:20:28;100170.66;;;13.24;63.94
70976;BME280;58635;51.198;6.010;2023-12-22T12:22:55;100166.84;;;13.26;63.71
70976;BME280;58635;51.198;6.010;2023-12-22T12:25:22;100169.19;;;13.28;63.45
70976;BME280;58635;51.198;6.010;2023-12-22T12:28:07;100169.19;;;13.28;63.48
70976;BME280;58635;51.198;6.010;2023-12-22T12:30:38;100172.03;;;13.26;63.68
70976;BME280;58635;51.198;6.010;2023-12-22T12:33:09;100171.00;;;13.27;63.80
70976;BME280;58635;51.198;6.010;2023-12-22T12:35:39;100159.84;;;13.27;64.09
70976;BME280;58635;51.198;6.010;2023-12-22T12:38:06;100160.63;;;13.27;64.12
70976;BME280;58635;51.198;6.010;2023-12-22T12:40:32;100159.84;;;13.27;64.22
70976;BME280;58635;51.198;6.010;2023-12-22T12:43:02;100162.75;;;13.30;64.46
70976;BME280;58635;51.198;6.010;2023-12-22T12:45:28;100148.19;;;13.29;64.35
70976;BME280;58635;51.198;6.010;2023-12-22T12:48:02;100150.56;;;13.31;64.53
70976;BME280;58635;51.198;6.010;2023-12-22T12:50:29;100154.75;;;13.32;64.33
70976;BME280;58635;51.198;6.010;2023-12-22T12:52:57;100143.78;;;13.30;64.44
70976;BME280;58635;51.198;6.010;2023-12-22T12:55:24;100144.34;;;13.32;64.47
70976;BME280;58635;51.198;6.010;2023-12-22T12:57:52;100144.34;;;13.32;64.26
70976;BME280;58635;51.198;6.010;2023-12-22T13:00:29;100143.09;;;13.34;64.22
70976;BME280;58635;51.198;6.010;2023-12-22T13:03:03;100144.13;;;13.33;64.10
70976;BME280;58635;51.198;6.010;2023-12-22T13:05:31;100140.41;;;13.29;64.27
70976;BME280;58635;51.198;6.010;2023-12-22T13:08:08;100142.78;;;13.31;63.96